Apache Junction, Arizona
Current Conditions -  °F | °C
As of 4:47 PM on Friday 24 Oct 2014 (Local Time) from KIWA Reporting Station
Clear Clear  
Wind Chill: 33°   Ceiling: Unl
Heat Index: 33°   Visibility: 45mi
Dew Point:   Wind: 3mph
Humidity: 23%   Direction: 300°WNW
Pressure: 29.98"   Gusts: NA
Location:  33.42°N, 111.54°W
Report Text: KIWA 242347Z 30003KT 45SM SKC 33/09 A2998
Loading
Personal Weather Stations






























Interactive Weather Map New forecast layout! Learn more

10-Day Weather Forecast

Advertisements
Track Severe Weather on mobile